sensor_id;sensor_type;location;lat;lon;timestamp;P1;durP1;ratioP1;P2;durP2;ratioP2
23490;SDS011;14683;50.038;8.078;2022-07-10T06:00:45;2.67;;;0.80;;
23490;SDS011;14683;50.038;8.078;2022-07-10T06:03:11;2.33;;;0.77;;
23490;SDS011;14683;50.038;8.078;2022-07-10T06:08:03;1.73;;;0.93;;
23490;SDS011;14683;50.038;8.078;2022-07-10T06:12:55;3.83;;;0.75;;
23490;SDS011;14683;50.038;8.078;2022-07-10T06:15:21;1.80;;;0.77;;
23490;SDS011;14683;50.038;8.078;2022-07-10T06:17:47;3.33;;;0.70;;
23490;SDS011;14683;50.038;8.078;2022-07-10T06:20:13;2.75;;;0.70;;
23490;SDS011;14683;50.038;8.078;2022-07-10T06:22:39;2.55;;;0.80;;
23490;SDS011;14683;50.038;8.078;2022-07-10T06:25:06;3.22;;;0.93;;
23490;SDS011;14683;50.038;8.078;2022-07-10T06:27:33;2.90;;;0.85;;
23490;SDS011;14683;50.038;8.078;2022-07-10T06:29:59;1.70;;;0.60;;
23490;SDS011;14683;50.038;8.078;2022-07-10T06:32:26;4.93;;;1.00;;
23490;SDS011;14683;50.038;8.078;2022-07-10T06:37:19;4.50;;;0.90;;
23490;SDS011;14683;50.038;8.078;2022-07-10T06:39:45;3.22;;;0.80;;
23490;SDS011;14683;50.038;8.078;2022-07-10T06:42:13;4.63;;;1.10;;
23490;SDS011;14683;50.038;8.078;2022-07-10T06:44:43;3.33;;;1.20;;
23490;SDS011;14683;50.038;8.078;2022-07-10T06:47:10;2.35;;;0.90;;
23490;SDS011;14683;50.038;8.078;2022-07-10T06:49:55;2.55;;;0.95;;
23490;SDS011;14683;50.038;8.078;2022-07-10T06:52:22;2.08;;;0.82;;
23490;SDS011;14683;50.038;8.078;2022-07-10T06:54:48;4.30;;;1.15;;
23490;SDS011;14683;50.038;8.078;2022-07-10T06:57:15;3.38;;;1.00;;
23490;SDS011;14683;50.038;8.078;2022-07-10T06:59:41;3.42;;;0.73;;
23490;SDS011;14683;50.038;8.078;2022-07-10T07:02:07;4.80;;;0.65;;
23490;SDS011;14683;50.038;8.078;2022-07-10T07:04:33;1.98;;;0.80;;
23490;SDS011;14683;50.038;8.078;2022-07-10T07:06:59;4.57;;;0.85;;
23490;SDS011;14683;50.038;8.078;2022-07-10T07:09:25;3.55;;;1.15;;
23490;SDS011;14683;50.038;8.078;2022-07-10T07:11:51;3.95;;;0.98;;
23490;SDS011;14683;50.038;8.078;2022-07-10T07:14:17;3.22;;;0.88;;
23490;SDS011;14683;50.038;8.078;2022-07-10T07:16:43;2.70;;;0.70;;
23490;SDS011;14683;50.038;8.078;2022-07-10T07:19:11;2.55;;;0.55;;
23490;SDS011;14683;50.038;8.078;2022-07-10T07:21:46;1.63;;;0.65;;
23490;SDS011;14683;50.038;8.078;2022-07-10T07:24:30;2.10;;;0.90;;
23490;SDS011;14683;50.038;8.078;2022-07-10T07:26:56;3.40;;;0.80;;
23490;SDS011;14683;50.038;8.078;2022-07-10T07:29:22;3.83;;;1.13;;
23490;SDS011;14683;50.038;8.078;2022-07-10T07:31:48;4.97;;;1.00;;
23490;SDS011;14683;50.038;8.078;2022-07-10T07:34:14;4.75;;;1.15;;
23490;SDS011;14683;50.038;8.078;2022-07-10T07:36:40;2.53;;;0.70;;
23490;SDS011;14683;50.038;8.078;2022-07-10T07:39:06;1.58;;;0.88;;
23490;SDS011;14683;50.038;8.078;2022-07-10T07:41:32;2.65;;;1.00;;
23490;SDS011;14683;50.038;8.078;2022-07-10T07:43:58;3.72;;;0.57;;
23490;SDS011;14683;50.038;8.078;2022-07-10T07:46:24;0.93;;;0.65;;
23490;SDS011;14683;50.038;8.078;2022-07-10T07:48:51;3.17;;;1.00;;
23490;SDS011;14683;50.038;8.078;2022-07-10T07:51:17;5.90;;;1.27;;
23490;SDS011;14683;50.038;8.078;2022-07-10T07:53:43;3.90;;;1.00;;
23490;SDS011;14683;50.038;8.078;2022-07-10T07:56:09;1.38;;;0.50;;
23490;SDS011;14683;50.038;8.078;2022-07-10T07:58:35;4.63;;;1.10;;
23490;SDS011;14683;50.038;8.078;2022-07-10T08:01:01;4.60;;;0.85;;
23490;SDS011;14683;50.038;8.078;2022-07-10T08:03:28;3.22;;;0.88;;
23490;SDS011;14683;50.038;8.078;2022-07-10T08:05:54;2.00;;;0.90;;
23490;SDS011;14683;50.038;8.078;2022-07-10T08:08:20;3.58;;;0.98;;
23490;SDS011;14683;50.038;8.078;2022-07-10T08:10:46;1.60;;;0.90;;
23490;SDS011;14683;50.038;8.078;2022-07-10T08:13:12;2.67;;;0.82;;
23490;SDS011;14683;50.038;8.078;2022-07-10T08:15:38;2.20;;;0.65;;
23490;SDS011;14683;50.038;8.078;2022-07-10T08:18:04;5.20;;;1.40;;
23490;SDS011;14683;50.038;8.078;2022-07-10T08:20:30;2.25;;;0.85;;
23490;SDS011;14683;50.038;8.078;2022-07-10T08:22:56;1.85;;;0.88;;
23490;SDS011;14683;50.038;8.078;2022-07-10T08:25:23;3.67;;;1.00;;
23490;SDS011;14683;50.038;8.078;2022-07-10T08:27:49;2.88;;;0.70;;
23490;SDS011;14683;50.038;8.078;2022-07-10T08:30:15;2.78;;;1.30;;
23490;SDS011;14683;50.038;8.078;2022-07-10T08:32:41;3.17;;;0.82;;
23490;SDS011;14683;50.038;8.078;2022-07-10T08:35:08;5.00;;;1.00;;
23490;SDS011;14683;50.038;8.078;2022-07-10T08:37:38;6.80;;;1.30;;
23490;SDS011;14683;50.038;8.078;2022-07-10T08:40:08;4.68;;;2.17;;
23490;SDS011;14683;50.038;8.078;2022-07-10T08:42:35;4.60;;;1.25;;
23490;SDS011;14683;50.038;8.078;2022-07-10T08:45:01;4.65;;;0.95;;
23490;SDS011;14683;50.038;8.078;2022-07-10T08:49:56;2.90;;;0.90;;
23490;SDS011;14683;50.038;8.078;2022-07-10T08:52:25;4.18;;;1.23;;
23490;SDS011;14683;50.038;8.078;2022-07-10T08:54:53;2.33;;;0.85;;
23490;SDS011;14683;50.038;8.078;2022-07-10T08:59:45;3.30;;;1.08;;
23490;SDS011;14683;50.038;8.078;2022-07-10T09:02:11;3.60;;;0.90;;
23490;SDS011;14683;50.038;8.078;2022-07-10T09:04:37;5.35;;;1.25;;
23490;SDS011;14683;50.038;8.078;2022-07-10T09:07:03;3.70;;;0.90;;
23490;SDS011;14683;50.038;8.078;2022-07-10T09:09:29;5.50;;;1.20;;
23490;SDS011;14683;50.038;8.078;2022-07-10T09:11:56;4.90;;;1.10;;
23490;SDS011;14683;50.038;8.078;2022-07-10T09:14:24;2.13;;;1.27;;
23490;SDS011;14683;50.038;8.078;2022-07-10T09:16:53;4.80;;;1.20;;
23490;SDS011;14683;50.038;8.078;2022-07-10T09:19:23;5.97;;;1.05;;
23490;SDS011;14683;50.038;8.078;2022-07-10T09:22:09;4.05;;;1.15;;
23490;SDS011;14683;50.038;8.078;2022-07-10T09:27:02;2.85;;;1.00;;
23490;SDS011;14683;50.038;8.078;2022-07-10T09:29:29;4.22;;;1.23;;
23490;SDS011;14683;50.038;8.078;2022-07-10T09:31:57;4.35;;;1.20;;
23490;SDS011;14683;50.038;8.078;2022-07-10T09:34:42;4.75;;;1.30;;
23490;SDS011;14683;50.038;8.078;2022-07-10T09:47:41;5.00;;;1.10;;
23490;SDS011;14683;50.038;8.078;2022-07-10T09:53:00;3.50;;;1.00;;
23490;SDS011;14683;50.038;8.078;2022-07-10T09:55:34;3.17;;;1.08;;
23490;SDS011;14683;50.038;8.078;2022-07-10T09:58:02;8.38;;;1.40;;
23490;SDS011;14683;50.038;8.078;2022-07-10T10:00:30;6.68;;;1.27;;
23490;SDS011;14683;50.038;8.078;2022-07-10T10:05:26;3.63;;;1.08;;
23490;SDS011;14683;50.038;8.078;2022-07-10T10:07:59;1.92;;;0.90;;
23490;SDS011;14683;50.038;8.078;2022-07-10T10:10:42;2.65;;;1.10;;
23490;SDS011;14683;50.038;8.078;2022-07-10T10:13:11;3.55;;;1.20;;
23490;SDS011;14683;50.038;8.078;2022-07-10T10:15:37;4.00;;;1.08;;
23490;SDS011;14683;50.038;8.078;2022-07-10T10:18:05;5.25;;;1.33;;
23490;SDS011;14683;50.038;8.078;2022-07-10T10:20:32;3.78;;;0.95;;
23490;SDS011;14683;50.038;8.078;2022-07-10T10:23:08;4.72;;;1.40;;
23490;SDS011;14683;50.038;8.078;2022-07-10T10:25:35;2.38;;;1.02;;
23490;SDS011;14683;50.038;8.078;2022-07-10T10:28:03;3.70;;;1.02;;
23490;SDS011;14683;50.038;8.078;2022-07-10T10:30:32;5.53;;;1.25;;
23490;SDS011;14683;50.038;8.078;2022-07-10T10:32:58;3.97;;;1.33;;
23490;SDS011;14683;50.038;8.078;2022-07-10T10:35:45;4.88;;;1.10;;
23490;SDS011;14683;50.038;8.078;2022-07-10T10:38:13;3.17;;;1.10;;
23490;SDS011;14683;50.038;8.078;2022-07-10T10:40:40;6.47;;;1.50;;
23490;SDS011;14683;50.038;8.078;2022-07-10T10:43:22;2.60;;;1.10;;
23490;SDS011;14683;50.038;8.078;2022-07-10T10:45:52;3.00;;;0.90;;
23490;SDS011;14683;50.038;8.078;2022-07-10T10:48:18;3.75;;;1.20;;
23490;SDS011;14683;50.038;8.078;2022-07-10T10:50:48;4.05;;;1.00;;
23490;SDS011;14683;50.038;8.078;2022-07-10T10:53:19;3.83;;;1.25;;
23490;SDS011;14683;50.038;8.078;2022-07-10T10:58:28;1.58;;;0.85;;
23490;SDS011;14683;50.038;8.078;2022-07-10T11:06:41;3.03;;;1.10;;
23490;SDS011;14683;50.038;8.078;2022-07-10T11:14:35;5.63;;;0.90;;
23490;SDS011;14683;50.038;8.078;2022-07-10T11:17:04;3.13;;;0.90;;
23490;SDS011;14683;50.038;8.078;2022-07-10T11:19:31;3.25;;;1.05;;
23490;SDS011;14683;50.038;8.078;2022-07-10T11:22:03;2.22;;;0.90;;
23490;SDS011;14683;50.038;8.078;2022-07-10T11:29:59;5.28;;;1.23;;
23490;SDS011;14683;50.038;8.078;2022-07-10T11:32:26;1.67;;;0.90;;
23490;SDS011;14683;50.038;8.078;2022-07-10T11:34:54;4.22;;;0.95;;
23490;SDS011;14683;50.038;8.078;2022-07-10T11:37:20;3.53;;;1.00;;
23490;SDS011;14683;50.038;8.078;2022-07-10T11:39:46;2.45;;;0.80;;
23490;SDS011;14683;50.038;8.078;2022-07-10T11:42:12;1.90;;;0.88;;
23490;SDS011;14683;50.038;8.078;2022-07-10T11:44:38;3.30;;;1.00;;
23490;SDS011;14683;50.038;8.078;2022-07-10T11:47:04;2.22;;;0.70;;
23490;SDS011;14683;50.038;8.078;2022-07-10T11:49:31;2.20;;;0.73;;
23490;SDS011;14683;50.038;8.078;2022-07-10T11:52:00;0.80;;;0.63;;
23490;SDS011;14683;50.038;8.078;2022-07-10T11:54:27;2.20;;;0.88;;
23490;SDS011;14683;50.038;8.078;2022-07-10T11:56:53;1.73;;;0.73;;
23490;SDS011;14683;50.038;8.078;2022-07-10T11:59:26;2.40;;;0.60;;
23490;SDS011;14683;50.038;8.078;2022-07-10T12:01:56;2.50;;;0.80;;
23490;SDS011;14683;50.038;8.078;2022-07-10T12:04:23;2.40;;;0.80;;
23490;SDS011;14683;50.038;8.078;2022-07-10T12:06:52;3.80;;;1.08;;
23490;SDS011;14683;50.038;8.078;2022-07-10T12:09:20;2.63;;;0.63;;
23490;SDS011;14683;50.038;8.078;2022-07-10T12:12:00;3.15;;;0.80;;
23490;SDS011;14683;50.038;8.078;2022-07-10T12:14:30;2.60;;;0.85;;
23490;SDS011;14683;50.038;8.078;2022-07-10T12:16:57;5.82;;;1.00;;
23490;SDS011;14683;50.038;8.078;2022-07-10T12:21:49;4.43;;;0.88;;
23490;SDS011;14683;50.038;8.078;2022-07-10T12:24:16;4.60;;;0.82;;
23490;SDS011;14683;50.038;8.078;2022-07-10T12:26:43;2.30;;;0.77;;
23490;SDS011;14683;50.038;8.078;2022-07-10T12:31:46;2.93;;;0.97;;
23490;SDS011;14683;50.038;8.078;2022-07-10T12:34:13;2.42;;;0.82;;
23490;SDS011;14683;50.038;8.078;2022-07-10T12:39:11;2.40;;;0.98;;
23490;SDS011;14683;50.038;8.078;2022-07-10T12:41:54;1.52;;;0.80;;
23490;SDS011;14683;50.038;8.078;2022-07-10T12:47:11;4.43;;;1.00;;
23490;SDS011;14683;50.038;8.078;2022-07-10T12:52:34;2.75;;;0.82;;
23490;SDS011;14683;50.038;8.078;2022-07-10T12:55:07;2.00;;;1.20;;
23490;SDS011;14683;50.038;8.078;2022-07-10T13:00:35;2.13;;;0.90;;
23490;SDS011;14683;50.038;8.078;2022-07-10T13:05:38;2.25;;;0.82;;
23490;SDS011;14683;50.038;8.078;2022-07-10T13:08:15;2.08;;;0.80;;
23490;SDS011;14683;50.038;8.078;2022-07-10T13:10:54;1.77;;;0.80;;
23490;SDS011;14683;50.038;8.078;2022-07-10T13:13:22;0.85;;;0.80;;
23490;SDS011;14683;50.038;8.078;2022-07-10T13:15:48;2.83;;;0.90;;
23490;SDS011;14683;50.038;8.078;2022-07-10T13:18:19;1.27;;;0.75;;
23490;SDS011;14683;50.038;8.078;2022-07-10T13:20:47;1.08;;;0.80;;
23490;SDS011;14683;50.038;8.078;2022-07-10T13:23:14;4.53;;;1.05;;
23490;SDS011;14683;50.038;8.078;2022-07-10T13:25:41;1.63;;;0.75;;
23490;SDS011;14683;50.038;8.078;2022-07-10T13:28:08;2.28;;;0.75;;
23490;SDS011;14683;50.038;8.078;2022-07-10T13:30:35;2.55;;;0.95;;
23490;SDS011;14683;50.038;8.078;2022-07-10T13:35:28;1.55;;;0.80;;
23490;SDS011;14683;50.038;8.078;2022-07-10T13:37:55;1.77;;;0.77;;
23490;SDS011;14683;50.038;8.078;2022-07-10T13:40:25;1.77;;;0.80;;
23490;SDS011;14683;50.038;8.078;2022-07-10T13:42:52;3.42;;;0.80;;
23490;SDS011;14683;50.038;8.078;2022-07-10T13:45:19;1.33;;;0.50;;
23490;SDS011;14683;50.038;8.078;2022-07-10T13:47:45;2.78;;;0.70;;
23490;SDS011;14683;50.038;8.078;2022-07-10T13:52:37;1.50;;;0.60;;
23490;SDS011;14683;50.038;8.078;2022-07-10T13:55:04;0.63;;;0.47;;
23490;SDS011;14683;50.038;8.078;2022-07-10T13:57:34;0.60;;;0.47;;
23490;SDS011;14683;50.038;8.078;2022-07-10T14:00:01;0.98;;;0.43;;
23490;SDS011;14683;50.038;8.078;2022-07-10T14:02:27;0.82;;;0.40;;
23490;SDS011;14683;50.038;8.078;2022-07-10T14:04:53;2.38;;;0.63;;
23490;SDS011;14683;50.038;8.078;2022-07-10T14:07:19;0.73;;;0.60;;
23490;SDS011;14683;50.038;8.078;2022-07-10T14:09:45;0.50;;;0.50;;
23490;SDS011;14683;50.038;8.078;2022-07-10T14:12:11;1.48;;;0.73;;
23490;SDS011;14683;50.038;8.078;2022-07-10T14:17:03;1.15;;;0.50;;
23490;SDS011;14683;50.038;8.078;2022-07-10T14:21:55;1.60;;;0.60;;
23490;SDS011;14683;50.038;8.078;2022-07-10T14:26:47;1.38;;;0.50;;
23490;SDS011;14683;50.038;8.078;2022-07-10T14:29:13;1.60;;;0.60;;
23490;SDS011;14683;50.038;8.078;2022-07-10T14:31:39;0.50;;;0.50;;
23490;SDS011;14683;50.038;8.078;2022-07-10T14:36:31;3.33;;;0.60;;
23490;SDS011;14683;50.038;8.078;2022-07-10T14:38:58;1.38;;;0.70;;
23490;SDS011;14683;50.038;8.078;2022-07-10T14:43:50;0.63;;;0.60;;
23490;SDS011;14683;50.038;8.078;2022-07-10T14:46:17;0.65;;;0.60;;
23490;SDS011;14683;50.038;8.078;2022-07-10T14:48:43;1.08;;;0.85;;
23490;SDS011;14683;50.038;8.078;2022-07-10T14:51:09;1.33;;;0.70;;
23490;SDS011;14683;50.038;8.078;2022-07-10T14:53:35;0.82;;;0.82;;
23490;SDS011;14683;50.038;8.078;2022-07-10T14:58:28;2.20;;;1.13;;
23490;SDS011;14683;50.038;8.078;2022-07-10T15:00:54;3.75;;;1.20;;
23490;SDS011;14683;50.038;8.078;2022-07-10T15:03:20;2.53;;;1.70;;
23490;SDS011;14683;50.038;8.078;2022-07-10T15:05:46;1.95;;;1.40;;
23490;SDS011;14683;50.038;8.078;2022-07-10T15:08:12;1.33;;;1.23;;
23490;SDS011;14683;50.038;8.078;2022-07-10T15:10:38;1.83;;;1.52;;
23490;SDS011;14683;50.038;8.078;2022-07-10T15:13:08;2.08;;;1.67;;
23490;SDS011;14683;50.038;8.078;2022-07-10T15:15:34;2.55;;;1.60;;
23490;SDS011;14683;50.038;8.078;2022-07-10T15:18:00;2.88;;;1.60;;
23490;SDS011;14683;50.038;8.078;2022-07-10T15:20:26;2.00;;;1.80;;
23490;SDS011;14683;50.038;8.078;2022-07-10T15:22:52;3.22;;;2.08;;
23490;SDS011;14683;50.038;8.078;2022-07-10T15:25:18;3.08;;;1.90;;
23490;SDS011;14683;50.038;8.078;2022-07-10T15:27:44;2.47;;;2.35;;
23490;SDS011;14683;50.038;8.078;2022-07-10T15:30:10;2.60;;;2.40;;
23490;SDS011;14683;50.038;8.078;2022-07-10T15:32:38;2.38;;;2.17;;
23490;SDS011;14683;50.038;8.078;2022-07-10T15:35:04;4.13;;;2.50;;
23490;SDS011;14683;50.038;8.078;2022-07-10T15:37:31;4.30;;;2.47;;
23490;SDS011;14683;50.038;8.078;2022-07-10T15:39:57;3.13;;;2.83;;
23490;SDS011;14683;50.038;8.078;2022-07-10T15:42:23;2.90;;;2.50;;
23490;SDS011;14683;50.038;8.078;2022-07-10T15:44:49;3.33;;;2.63;;
23490;SDS011;14683;50.038;8.078;2022-07-10T15:47:15;4.60;;;2.60;;
23490;SDS011;14683;50.038;8.078;2022-07-10T15:49:42;5.57;;;3.08;;
23490;SDS011;14683;50.038;8.078;2022-07-10T15:52:08;4.30;;;3.25;;
23490;SDS011;14683;50.038;8.078;2022-07-10T15:54:34;2.58;;;2.38;;
23490;SDS011;14683;50.038;8.078;2022-07-10T15:57:00;2.92;;;2.72;;
23490;SDS011;14683;50.038;8.078;2022-07-10T15:59:27;3.20;;;2.58;;
23490;SDS011;14683;50.038;8.078;2022-07-10T16:01:54;5.10;;;2.65;;
23490;SDS011;14683;50.038;8.078;2022-07-10T16:04:21;2.75;;;2.55;;
23490;SDS011;14683;50.038;8.078;2022-07-10T16:06:49;3.78;;;2.35;;
23490;SDS011;14683;50.038;8.078;2022-07-10T16:09:16;2.83;;;2.60;;
23490;SDS011;14683;50.038;8.078;2022-07-10T16:11:43;5.00;;;2.80;;
23490;SDS011;14683;50.038;8.078;2022-07-10T16:14:09;3.88;;;2.70;;
23490;SDS011;14683;50.038;8.078;2022-07-10T16:16:36;2.92;;;2.30;;
23490;SDS011;14683;50.038;8.078;2022-07-10T16:19:03;2.53;;;2.33;;
23490;SDS011;14683;50.038;8.078;2022-07-10T16:21:29;5.57;;;4.88;;
23490;SDS011;14683;50.038;8.078;2022-07-10T16:23:56;2.45;;;2.20;;
23490;SDS011;14683;50.038;8.078;2022-07-10T16:26:24;1.80;;;1.70;;
23490;SDS011;14683;50.038;8.078;2022-07-10T16:28:50;2.58;;;1.70;;
23490;SDS011;14683;50.038;8.078;2022-07-10T16:31:17;2.35;;;1.70;;
23490;SDS011;14683;50.038;8.078;2022-07-10T16:36:10;2.80;;;1.73;;
23490;SDS011;14683;50.038;8.078;2022-07-10T16:38:37;1.20;;;1.20;;
23490;SDS011;14683;50.038;8.078;2022-07-10T16:41:03;1.83;;;1.05;;
23490;SDS011;14683;50.038;8.078;2022-07-10T16:43:29;1.48;;;1.23;;
23490;SDS011;14683;50.038;8.078;2022-07-10T16:45:58;2.25;;;1.35;;
23490;SDS011;14683;50.038;8.078;2022-07-10T16:48:25;2.03;;;1.35;;
23490;SDS011;14683;50.038;8.078;2022-07-10T16:50:51;3.35;;;1.50;;
23490;SDS011;14683;50.038;8.078;2022-07-10T16:55:43;1.83;;;1.20;;
23490;SDS011;14683;50.038;8.078;2022-07-10T16:58:09;1.00;;;1.00;;
23490;SDS011;14683;50.038;8.078;2022-07-10T17:00:36;1.73;;;1.08;;
23490;SDS011;14683;50.038;8.078;2022-07-10T17:05:28;1.55;;;1.00;;
23490;SDS011;14683;50.038;8.078;2022-07-10T17:07:55;3.88;;;1.17;;
23490;SDS011;14683;50.038;8.078;2022-07-10T17:10:21;3.50;;;1.40;;
23490;SDS011;14683;50.038;8.078;2022-07-10T17:12:47;1.30;;;1.25;;
23490;SDS011;14683;50.038;8.078;2022-07-10T17:15:13;1.08;;;0.98;;
23490;SDS011;14683;50.038;8.078;2022-07-10T17:17:40;1.45;;;1.30;;
23490;SDS011;14683;50.038;8.078;2022-07-10T17:20:07;1.33;;;1.23;;
23490;SDS011;14683;50.038;8.078;2022-07-10T17:22:34;2.42;;;1.42;;
23490;SDS011;14683;50.038;8.078;2022-07-10T17:25:03;3.90;;;1.30;;
23490;SDS011;14683;50.038;8.078;2022-07-10T17:27:29;2.83;;;1.75;;
23490;SDS011;14683;50.038;8.078;2022-07-10T17:29:55;2.88;;;2.00;;
23490;SDS011;14683;50.038;8.078;2022-07-10T17:32:21;3.47;;;1.92;;
23490;SDS011;14683;50.038;8.078;2022-07-10T17:34:47;2.30;;;1.80;;
23490;SDS011;14683;50.038;8.078;2022-07-10T17:37:13;5.50;;;2.00;;
23490;SDS011;14683;50.038;8.078;2022-07-10T17:39:39;4.47;;;2.05;;
23490;SDS011;14683;50.038;8.078;2022-07-10T17:42:05;2.08;;;1.98;;
23490;SDS011;14683;50.038;8.078;2022-07-10T17:44:32;2.58;;;2.00;;
23490;SDS011;14683;50.038;8.078;2022-07-10T17:46:58;3.58;;;2.10;;
23490;SDS011;14683;50.038;8.078;2022-07-10T17:49:24;2.17;;;1.98;;
23490;SDS011;14683;50.038;8.078;2022-07-10T17:51:54;3.67;;;1.85;;
23490;SDS011;14683;50.038;8.078;2022-07-10T17:54:20;2.50;;;1.90;;
23490;SDS011;14683;50.038;8.078;2022-07-10T17:56:48;4.10;;;1.90;;
23490;SDS011;14683;50.038;8.078;2022-07-10T17:59:14;2.00;;;1.90;;
23490;SDS011;14683;50.038;8.078;2022-07-10T18:04:06;1.80;;;1.70;;
23490;SDS011;14683;50.038;8.078;2022-07-10T18:06:32;2.30;;;1.80;;
23490;SDS011;14683;50.038;8.078;2022-07-10T18:08:58;3.58;;;1.90;;
23490;SDS011;14683;50.038;8.078;2022-07-10T18:11:25;3.88;;;1.80;;
23490;SDS011;14683;50.038;8.078;2022-07-10T18:13:51;3.67;;;2.08;;
23490;SDS011;14683;50.038;8.078;2022-07-10T18:18:52;2.60;;;1.90;;
23490;SDS011;14683;50.038;8.078;2022-07-10T18:21:20;2.42;;;2.13;;
23490;SDS011;14683;50.038;8.078;2022-07-10T18:23:47;2.40;;;2.20;;
23490;SDS011;14683;50.038;8.078;2022-07-10T18:26:13;4.07;;;2.30;;
23490;SDS011;14683;50.038;8.078;2022-07-10T18:28:40;2.80;;;2.42;;
23490;SDS011;14683;50.038;8.078;2022-07-10T18:31:06;3.47;;;2.17;;
23490;SDS011;14683;50.038;8.078;2022-07-10T18:33:33;3.53;;;2.05;;
23490;SDS011;14683;50.038;8.078;2022-07-10T18:36:18;3.33;;;2.00;;
23490;SDS011;14683;50.038;8.078;2022-07-10T18:41:11;2.00;;;1.90;;
23490;SDS011;14683;50.038;8.078;2022-07-10T18:46:03;2.92;;;2.08;;
23490;SDS011;14683;50.038;8.078;2022-07-10T18:50:56;2.67;;;2.20;;
23490;SDS011;14683;50.038;8.078;2022-07-10T18:53:22;2.95;;;2.08;;
23490;SDS011;14683;50.038;8.078;2022-07-10T18:55:49;2.22;;;2.03;;
23490;SDS011;14683;50.038;8.078;2022-07-10T18:58:15;4.63;;;2.35;;
23490;SDS011;14683;50.038;8.078;2022-07-10T19:00:42;3.80;;;1.80;;
23490;SDS011;14683;50.038;8.078;2022-07-10T19:03:08;3.92;;;1.88;;
23490;SDS011;14683;50.038;8.078;2022-07-10T19:08:00;2.15;;;1.95;;
23490;SDS011;14683;50.038;8.078;2022-07-10T19:10:26;2.08;;;1.85;;
23490;SDS011;14683;50.038;8.078;2022-07-10T19:15:19;1.98;;;1.80;;
23490;SDS011;14683;50.038;8.078;2022-07-10T19:17:46;3.33;;;1.98;;
23490;SDS011;14683;50.038;8.078;2022-07-10T19:20:13;3.47;;;2.25;;
23490;SDS011;14683;50.038;8.078;2022-07-10T19:22:41;2.05;;;1.80;;
23490;SDS011;14683;50.038;8.078;2022-07-10T19:25:08;3.53;;;2.08;;
23490;SDS011;14683;50.038;8.078;2022-07-10T19:30:00;4.00;;;2.28;;
23490;SDS011;14683;50.038;8.078;2022-07-10T19:32:26;3.67;;;1.90;;
23490;SDS011;14683;50.038;8.078;2022-07-10T19:34:53;4.38;;;2.22;;
23490;SDS011;14683;50.038;8.078;2022-07-10T19:37:23;2.65;;;2.20;;
23490;SDS011;14683;50.038;8.078;2022-07-10T19:39:49;4.90;;;2.58;;
23490;SDS011;14683;50.038;8.078;2022-07-10T19:42:15;2.55;;;2.35;;
23490;SDS011;14683;50.038;8.078;2022-07-10T19:44:41;4.22;;;2.40;;
